createdAt,value
2022-09-14T00:01:36.539Z,60.36
2022-09-14T00:04:12.404Z,60.51
2022-09-14T00:06:40.041Z,60.40
2022-09-14T00:09:07.863Z,60.47
2022-09-14T00:11:37.113Z,60.61
2022-09-14T00:14:05.350Z,60.63
2022-09-14T00:16:35.692Z,61.30
2022-09-14T00:19:08.344Z,61.03
2022-09-14T00:21:38.801Z,61.28
2022-09-14T00:24:07.400Z,61.75
2022-09-14T00:26:35.605Z,61.97
2022-09-14T00:29:04.999Z,61.80
2022-09-14T00:31:35.774Z,62.11
2022-09-14T00:34:05.789Z,61.75
2022-09-14T00:36:34.415Z,62.72
2022-09-14T00:39:01.879Z,62.19
2022-09-14T00:41:34.297Z,62.04
2022-09-14T00:44:10.396Z,61.90
2022-09-14T00:46:46.834Z,61.92
2022-09-14T00:49:32.535Z,61.79
2022-09-14T00:52:12.399Z,61.79
2022-09-14T00:54:43.736Z,62.05
2022-09-14T00:57:11.669Z,62.14
2022-09-14T00:59:41.396Z,62.26
2022-09-14T01:02:11.177Z,62.39
2022-09-14T01:04:38.611Z,62.46
2022-09-14T01:07:39.372Z,62.63
2022-09-14T01:10:25.584Z,63.13
2022-09-14T01:13:32.806Z,63.33
2022-09-14T01:16:38.345Z,62.61
2022-09-14T01:19:27.694Z,63.11
2022-09-14T01:22:04.735Z,63.13
2022-09-14T01:24:41.189Z,63.39
2022-09-14T01:27:26.943Z,63.56
2022-09-14T01:30:15.268Z,63.40
2022-09-14T01:33:09.236Z,63.94
2022-09-14T01:35:44.864Z,63.31
2022-09-14T01:38:35.995Z,63.44
2022-09-14T01:41:07.604Z,63.45
2022-09-14T01:44:11.871Z,63.64
2022-09-14T01:46:45.396Z,63.52
2022-09-14T01:49:23.678Z,63.79
2022-09-14T01:52:01.952Z,63.78
2022-09-14T01:54:43.978Z,63.48
2022-09-14T01:57:19.757Z,63.69
2022-09-14T01:59:51.206Z,63.62
2022-09-14T02:02:34.760Z,64.04
2022-09-14T02:05:11.096Z,63.75
2022-09-14T02:07:38.660Z,63.63
2022-09-14T02:10:12.567Z,63.31
2022-09-14T02:12:41.157Z,64.09
2022-09-14T02:15:11.755Z,63.72
2022-09-14T02:17:39.801Z,64.03
2022-09-14T02:20:13.069Z,64.02
2022-09-14T02:22:40.090Z,64.02
2022-09-14T02:25:07.729Z,63.92
2022-09-14T02:27:34.593Z,63.50
2022-09-14T02:30:01.779Z,63.78
2022-09-14T02:32:56.542Z,64.15
2022-09-14T02:35:40.146Z,63.89
2022-09-14T02:38:45.992Z,64.23
2022-09-14T02:41:53.934Z,64.41
2022-09-14T02:44:44.010Z,64.93
2022-09-14T02:47:33.897Z,64.48
2022-09-14T02:50:31.526Z,64.74
2022-09-14T02:53:25.629Z,64.67
2022-09-14T02:55:59.203Z,64.93
2022-09-14T02:58:38.910Z,64.81
2022-09-14T03:01:08.118Z,65.06
2022-09-14T03:03:35.963Z,65.26
2022-09-14T03:06:03.472Z,65.06
2022-09-14T03:08:30.711Z,65.33
2022-09-14T03:10:58.324Z,65.20
2022-09-14T03:13:25.504Z,65.75
2022-09-14T03:15:52.905Z,65.36
2022-09-14T03:18:20.271Z,65.55
2022-09-14T03:20:47.367Z,65.26
2022-09-14T03:23:15.143Z,65.41
2022-09-14T03:25:44.516Z,65.30
2022-09-14T03:28:12.616Z,65.68
2022-09-14T03:30:39.666Z,65.69
2022-09-14T03:33:06.861Z,65.78
2022-09-14T03:35:34.023Z,65.68
2022-09-14T03:38:03.271Z,66.14
2022-09-14T03:40:31.105Z,65.94
2022-09-14T03:42:58.184Z,66.24
2022-09-14T03:45:25.343Z,66.51
2022-09-14T03:47:52.366Z,66.89
2022-09-14T03:50:20.085Z,67.27
2022-09-14T03:52:47.856Z,67.62
2022-09-14T03:55:15.467Z,67.61
2022-09-14T03:57:42.443Z,67.79
2022-09-14T04:00:11.599Z,67.86
2022-09-14T04:02:39.968Z,67.53
2022-09-14T04:05:07.409Z,67.70
2022-09-14T04:07:34.414Z,67.75
2022-09-14T04:10:01.503Z,67.63
2022-09-14T04:12:29.291Z,67.79
2022-09-14T04:14:56.555Z,67.68
2022-09-14T04:17:25.107Z,67.59
2022-09-14T04:19:52.067Z,67.12
2022-09-14T04:22:19.209Z,67.51
2022-09-14T04:24:46.317Z,67.68
2022-09-14T04:27:13.564Z,67.29
2022-09-14T04:29:40.491Z,67.38
2022-09-14T04:32:07.458Z,67.47
2022-09-14T04:34:35.737Z,67.67
2022-09-14T04:37:02.998Z,67.76
2022-09-14T04:39:30.339Z,67.82
2022-09-14T04:41:57.834Z,68.06
2022-09-14T04:44:25.187Z,68.36
2022-09-14T04:46:52.352Z,68.41
2022-09-14T04:49:21.534Z,68.77
2022-09-14T04:51:48.823Z,68.60
2022-09-14T04:54:17.854Z,68.96
2022-09-14T04:56:45.490Z,68.74
2022-09-14T04:59:13.479Z,68.72
2022-09-14T05:01:44.499Z,69.18
2022-09-14T05:04:12.566Z,68.86
2022-09-14T05:06:42.025Z,68.97
2022-09-14T05:09:16.807Z,68.94
2022-09-14T05:11:44.497Z,68.87
2022-09-14T05:14:13.559Z,68.83
2022-09-14T05:16:42.878Z,68.85
2022-09-14T05:19:15.226Z,69.29
2022-09-14T05:21:42.433Z,69.30
2022-09-14T05:24:16.759Z,69.45
2022-09-14T05:26:45.680Z,69.28
2022-09-14T05:29:18.418Z,69.20
2022-09-14T05:31:45.898Z,69.34
2022-09-14T05:34:13.486Z,69.22
2022-09-14T05:36:41.245Z,69.59
2022-09-14T05:39:10.026Z,69.49
2022-09-14T05:41:37.728Z,69.80
2022-09-14T05:44:06.316Z,70.01
2022-09-14T05:46:34.321Z,69.98
2022-09-14T05:49:01.768Z,69.87
2022-09-14T05:51:28.963Z,69.98
2022-09-14T05:53:58.054Z,69.82
2022-09-14T05:56:28.533Z,69.80
2022-09-14T05:58:55.923Z,69.47
2022-09-14T06:01:25.988Z,70.18
2022-09-14T06:03:55.550Z,70.20
2022-09-14T06:06:23.516Z,70.25
2022-09-14T06:08:54.246Z,70.40
2022-09-14T06:11:33.068Z,70.27
2022-09-14T06:14:00.639Z,70.88
2022-09-14T06:16:29.168Z,71.24
2022-09-14T06:18:58.348Z,70.99
2022-09-14T06:21:30.458Z,71.01
2022-09-14T06:23:57.758Z,70.73
2022-09-14T06:26:25.969Z,70.87
2022-09-14T06:28:53.714Z,70.38
2022-09-14T06:31:22.727Z,70.28
2022-09-14T06:33:51.697Z,70.33
2022-09-14T06:36:26.266Z,69.98
2022-09-14T06:38:54.293Z,69.82
2022-09-14T06:41:26.609Z,69.96
2022-09-14T06:43:58.321Z,69.95
2022-09-14T06:46:31.432Z,69.92
2022-09-14T06:49:14.685Z,69.44
2022-09-14T06:51:46.850Z,68.71
2022-09-14T06:54:15.981Z,68.18
2022-09-14T06:56:45.131Z,68.40
2022-09-14T06:59:15.301Z,68.20
2022-09-14T07:01:44.922Z,68.23
2022-09-14T07:04:12.556Z,67.62
2022-09-14T07:06:48.589Z,67.49
2022-09-14T07:09:17.695Z,67.80
2022-09-14T07:11:45.566Z,67.29
2022-09-14T07:14:12.976Z,67.18
2022-09-14T07:16:41.131Z,66.94
2022-09-14T07:19:13.115Z,66.77
2022-09-14T07:21:41.613Z,66.50
2022-09-14T07:24:08.946Z,66.39
2022-09-14T07:26:40.552Z,66.56
2022-09-14T07:29:15.087Z,66.25
2022-09-14T07:31:49.344Z,66.36
2022-09-14T07:34:17.383Z,66.17
2022-09-14T07:36:44.887Z,65.85
2022-09-14T07:39:16.153Z,65.76
2022-09-14T07:41:44.022Z,66.38
2022-09-14T07:44:15.750Z,66.38
2022-09-14T07:46:44.658Z,65.67
2022-09-14T07:49:12.904Z,65.23
2022-09-14T07:51:40.351Z,65.29
2022-09-14T07:54:11.326Z,64.67
2022-09-14T07:56:38.826Z,64.04
2022-09-14T08:01:52.879Z,64.26
2022-09-14T08:04:20.052Z,64.03
2022-09-14T08:06:47.361Z,64.08
2022-09-14T08:09:14.564Z,63.76
2022-09-14T08:11:41.525Z,63.76
2022-09-14T08:14:11.587Z,64.25
2022-09-14T08:16:40.699Z,64.26
2022-09-14T08:19:16.532Z,64.23
2022-09-14T08:21:47.335Z,64.54
2022-09-14T08:24:18.842Z,64.12
2022-09-14T08:26:47.499Z,63.86
2022-09-14T08:29:16.563Z,64.41
2022-09-14T08:31:45.661Z,65.07
2022-09-14T08:34:15.080Z,64.72
2022-09-14T08:36:43.208Z,64.24
2022-09-14T08:39:14.026Z,64.94
2022-09-14T08:41:43.833Z,64.47
2022-09-14T08:44:31.622Z,64.46
2022-09-14T08:47:12.481Z,64.35
2022-09-14T08:49:56.441Z,64.07
2022-09-14T08:52:39.961Z,64.31
2022-09-14T08:55:53.299Z,64.97
2022-09-14T08:58:29.932Z,64.18
2022-09-14T09:01:12.450Z,63.84
2022-09-14T09:04:20.076Z,64.56
2022-09-14T09:07:03.042Z,64.39
2022-09-14T09:09:46.845Z,62.77
2022-09-14T09:12:30.118Z,62.93
2022-09-14T09:15:05.191Z,63.34
2022-09-14T09:17:42.479Z,63.40
2022-09-14T09:20:19.478Z,62.78
2022-09-14T09:23:15.615Z,62.70
2022-09-14T09:25:54.898Z,62.34
2022-09-14T09:28:24.085Z,62.40
2022-09-14T09:30:53.706Z,62.26
2022-09-14T09:33:28.224Z,61.78
2022-09-14T09:36:12.924Z,61.94
2022-09-14T09:38:40.530Z,61.61
2022-09-14T09:41:22.013Z,61.06
2022-09-14T09:44:06.823Z,61.36
2022-09-14T09:46:38.574Z,61.80
2022-09-14T09:49:22.052Z,61.72
2022-09-14T09:51:50.429Z,60.43
2022-09-14T09:54:30.218Z,60.35
2022-09-14T09:57:06.404Z,60.91
2022-09-14T09:59:44.239Z,60.46
2022-09-14T10:02:22.120Z,61.02
2022-09-14T10:05:10.885Z,59.78
2022-09-14T10:07:55.405Z,60.93
2022-09-14T10:10:40.448Z,61.08
2022-09-14T10:13:38.570Z,60.55
2022-09-14T10:16:17.997Z,61.32
2022-09-14T10:18:52.126Z,61.26
2022-09-14T10:21:22.401Z,60.55
2022-09-14T10:24:21.793Z,60.72
2022-09-14T10:26:48.936Z,60.71
2022-09-14T10:29:28.809Z,60.31
2022-09-14T10:32:05.393Z,60.41
2022-09-14T10:34:33.856Z,59.16
2022-09-14T10:37:24.422Z,59.18
2022-09-14T10:40:18.349Z,59.26
2022-09-14T10:43:16.503Z,59.78
2022-09-14T10:45:52.866Z,59.07
2022-09-14T10:49:04.883Z,59.29
2022-09-14T10:51:50.356Z,58.71
2022-09-14T10:54:32.640Z,58.54
2022-09-14T10:57:49.031Z,58.73
2022-09-14T11:00:20.765Z,58.67
2022-09-14T11:03:46.249Z,59.24
2022-09-14T11:06:38.282Z,58.19
2022-09-14T11:09:23.066Z,58.72
2022-09-14T11:12:02.151Z,57.84
2022-09-14T11:15:15.887Z,57.90
2022-09-14T11:17:54.668Z,57.79
2022-09-14T11:20:45.813Z,57.49
2022-09-14T11:23:26.597Z,57.51
2022-09-14T11:26:09.134Z,57.86
2022-09-14T11:28:56.501Z,57.41
2022-09-14T11:31:38.014Z,57.66
2022-09-14T11:34:29.300Z,58.11
2022-09-14T11:37:05.592Z,58.05
2022-09-14T11:40:06.576Z,57.48
2022-09-14T11:43:10.441Z,57.38
2022-09-14T11:46:06.678Z,56.42
2022-09-14T11:49:05.077Z,56.68
2022-09-14T11:51:41.770Z,56.65
2022-09-14T11:54:22.859Z,56.66
2022-09-14T11:56:55.842Z,56.83
2022-09-14T11:59:50.393Z,56.51
2022-09-14T12:02:23.415Z,56.14
2022-09-14T12:05:09.187Z,55.66
2022-09-14T12:07:39.599Z,55.35
2022-09-14T12:10:15.979Z,55.61
2022-09-14T12:12:57.803Z,55.08
2022-09-14T12:15:24.729Z,54.52
2022-09-14T12:18:06.630Z,54.86
2022-09-14T12:20:50.503Z,55.60
2022-09-14T12:23:38.823Z,55.21
2022-09-14T12:26:15.810Z,55.38
2022-09-14T12:28:50.272Z,55.57
2022-09-14T12:31:36.079Z,55.37
2022-09-14T12:34:15.113Z,54.44
2022-09-14T12:36:42.521Z,55.46
2022-09-14T12:39:23.617Z,55.80
2022-09-14T12:41:50.482Z,55.52
2022-09-14T12:44:42.749Z,55.15
2022-09-14T12:47:24.976Z,55.51
2022-09-14T12:50:18.411Z,55.52
2022-09-14T12:53:14.207Z,55.14
2022-09-14T12:55:57.432Z,55.06
2022-09-14T12:58:59.942Z,55.50
2022-09-14T13:01:35.142Z,55.09
2022-09-14T13:04:04.531Z,54.58
2022-09-14T13:06:44.434Z,54.41
2022-09-14T13:09:22.330Z,53.93
2022-09-14T13:11:58.575Z,54.22
2022-09-14T13:14:31.910Z,54.57
2022-09-14T13:17:04.269Z,54.59
2022-09-14T13:19:33.746Z,54.78
2022-09-14T13:22:03.019Z,54.89
2022-09-14T13:24:38.941Z,55.37
2022-09-14T13:27:35.014Z,55.23
2022-09-14T13:30:23.444Z,55.22
2022-09-14T13:32:54.849Z,54.66
2022-09-14T13:35:39.360Z,54.62
2022-09-14T13:38:22.016Z,54.82
2022-09-14T13:40:52.412Z,55.14
2022-09-14T13:43:22.129Z,54.67
2022-09-14T13:45:51.563Z,54.72
2022-09-14T13:48:20.273Z,54.25
2022-09-14T13:50:50.422Z,54.78
2022-09-14T13:53:48.580Z,55.48
2022-09-14T13:56:35.563Z,55.01
2022-09-14T13:59:08.695Z,54.35
2022-09-14T14:01:47.278Z,55.05
2022-09-14T14:04:23.563Z,54.52
2022-09-14T14:07:07.091Z,55.07
2022-09-14T14:09:50.749Z,55.87
2022-09-14T14:12:45.187Z,55.76
2022-09-14T14:15:14.881Z,55.46
2022-09-14T14:17:42.229Z,55.81
2022-09-14T14:20:39.226Z,56.11
2022-09-14T14:23:06.174Z,56.18
2022-09-14T14:25:43.364Z,56.62
2022-09-14T14:28:22.916Z,56.27
2022-09-14T14:30:50.689Z,56.46
2022-09-14T14:33:19.369Z,56.98
2022-09-14T14:35:48.632Z,57.61
2022-09-14T14:38:16.446Z,58.06
2022-09-14T14:40:44.864Z,58.06
2022-09-14T14:43:20.714Z,58.83
2022-09-14T14:45:48.854Z,60.10
2022-09-14T14:48:18.368Z,60.69
2022-09-14T14:50:46.640Z,61.67
2022-09-14T14:53:13.783Z,62.33
2022-09-14T14:55:41.039Z,63.26
2022-09-14T14:58:16.316Z,64.50
2022-09-14T15:00:43.401Z,65.87
2022-09-14T15:03:10.457Z,67.38
2022-09-14T15:05:43.175Z,68.90
2022-09-14T15:08:16.223Z,69.64
2022-09-14T15:10:43.305Z,69.60
2022-09-14T15:13:13.792Z,69.11
2022-09-14T15:15:43.001Z,68.57
2022-09-14T15:18:10.122Z,68.65
2022-09-14T15:20:38.635Z,67.95
2022-09-14T15:23:06.165Z,68.03
2022-09-14T15:25:33.297Z,67.43
2022-09-14T15:28:00.436Z,68.39
2022-09-14T15:30:27.524Z,68.48
2022-09-14T15:32:54.631Z,67.15
2022-09-14T15:35:21.630Z,67.15
2022-09-14T15:37:48.630Z,67.07
2022-09-14T15:40:16.539Z,66.18
2022-09-14T15:42:44.039Z,66.12
2022-09-14T15:45:11.220Z,66.24
2022-09-14T15:47:42.230Z,66.19
2022-09-14T15:50:11.544Z,65.78
2022-09-14T15:52:39.446Z,65.00
2022-09-14T15:55:09.116Z,65.82
2022-09-14T15:57:37.597Z,65.62
2022-09-14T16:00:12.879Z,65.26
2022-09-14T16:02:43.230Z,65.11
2022-09-14T16:05:10.978Z,65.02
2022-09-14T16:07:38.457Z,64.43
2022-09-14T16:10:06.431Z,64.81
2022-09-14T16:12:33.378Z,64.40
2022-09-14T16:15:00.598Z,63.86
2022-09-14T16:17:27.624Z,63.92
2022-09-14T16:19:54.607Z,63.85
2022-09-14T16:22:21.985Z,63.81
2022-09-14T16:24:49.180Z,63.48
2022-09-14T16:27:16.333Z,63.47
2022-09-14T16:29:43.414Z,63.36
2022-09-14T16:32:10.406Z,62.86
2022-09-14T16:34:37.953Z,63.06
2022-09-14T16:37:04.966Z,62.82
2022-09-14T16:39:34.804Z,62.86
2022-09-14T16:42:02.146Z,62.64
2022-09-14T16:44:29.798Z,62.35
2022-09-14T16:46:58.396Z,62.51
2022-09-14T16:49:27.903Z,62.22
2022-09-14T16:51:56.727Z,62.17
2022-09-14T16:54:25.765Z,62.01
2022-09-14T16:56:58.041Z,62.15
2022-09-14T16:59:25.832Z,63.18
2022-09-14T17:01:54.914Z,63.28
2022-09-14T17:04:24.232Z,62.97
2022-09-14T17:06:52.970Z,63.83
2022-09-14T17:09:27.529Z,63.52
2022-09-14T17:11:56.469Z,63.96
2022-09-14T17:14:30.303Z,64.53
2022-09-14T17:16:58.867Z,64.62
2022-09-14T17:19:27.389Z,64.57
2022-09-14T17:21:54.908Z,64.46
2022-09-14T17:24:22.504Z,65.18
2022-09-14T17:26:50.113Z,65.07
2022-09-14T17:29:17.840Z,64.92
2022-09-14T17:31:45.934Z,64.84
2022-09-14T17:34:16.598Z,64.99
2022-09-14T17:36:44.407Z,64.98
2022-09-14T17:39:12.587Z,65.12
2022-09-14T17:41:42.838Z,64.94
2022-09-14T17:44:12.955Z,65.45
2022-09-14T17:46:49.527Z,64.92
2022-09-14T17:49:19.364Z,64.84
2022-09-14T17:51:46.399Z,64.84
2022-09-14T17:54:13.445Z,65.30
2022-09-14T17:56:40.774Z,65.26
2022-09-14T17:59:13.354Z,65.23
2022-09-14T18:01:41.118Z,65.40
2022-09-14T18:04:12.218Z,65.43
2022-09-14T18:06:44.672Z,65.56
2022-09-14T18:09:19.523Z,66.34
2022-09-14T18:11:47.003Z,66.08
2022-09-14T18:14:15.753Z,66.30
2022-09-14T18:16:44.173Z,66.54
2022-09-14T18:19:11.784Z,66.75
2022-09-14T18:21:39.201Z,66.79
2022-09-14T18:24:06.647Z,67.35
2022-09-14T18:26:33.769Z,67.63
2022-09-14T18:29:00.902Z,67.14
2022-09-14T18:31:28.044Z,67.81
2022-09-14T18:34:01.662Z,67.15
2022-09-14T18:36:29.851Z,67.29
2022-09-14T18:38:58.727Z,67.25
2022-09-14T18:41:29.551Z,67.92
2022-09-14T18:43:57.988Z,68.21
2022-09-14T18:46:28.019Z,67.55
2022-09-14T18:48:57.828Z,68.18
2022-09-14T18:51:25.985Z,68.19
2022-09-14T18:54:13.400Z,68.04
2022-09-14T18:56:41.418Z,68.05
2022-09-14T18:59:15.258Z,68.38
2022-09-14T19:01:42.999Z,68.33
2022-09-14T19:04:11.329Z,68.21
2022-09-14T19:06:41.514Z,68.29
2022-09-14T19:09:09.818Z,68.62
2022-09-14T19:11:37.624Z,68.95
2022-09-14T19:14:10.221Z,68.20
2022-09-14T19:16:39.548Z,68.00
2022-09-14T19:19:08.898Z,68.13
2022-09-14T19:21:36.092Z,68.42
2022-09-14T19:24:10.857Z,68.54
2022-09-14T19:26:45.259Z,68.32
2022-09-14T19:29:16.872Z,68.94
2022-09-14T19:31:44.134Z,68.68
2022-09-14T19:34:11.943Z,68.50
2022-09-14T19:36:38.926Z,68.87
2022-09-14T19:39:06.346Z,68.86
2022-09-14T19:41:35.008Z,68.71
2022-09-14T19:44:03.990Z,69.32
2022-09-14T19:46:34.112Z,69.69
2022-09-14T19:49:01.097Z,69.38
2022-09-14T19:51:30.474Z,69.60
2022-09-14T19:54:00.460Z,69.77
2022-09-14T19:56:30.663Z,69.21
2022-09-14T19:59:00.526Z,69.60
2022-09-14T20:01:29.636Z,70.15
2022-09-14T20:03:57.474Z,69.95
2022-09-14T20:06:40.668Z,69.83
2022-09-14T20:09:20.913Z,70.15
2022-09-14T20:11:50.489Z,69.52
2022-09-14T20:14:23.095Z,70.14
2022-09-14T20:16:55.382Z,70.16
2022-09-14T20:19:27.169Z,70.27
2022-09-14T20:21:54.382Z,70.56
2022-09-14T20:24:31.118Z,70.91
2022-09-14T20:27:00.809Z,70.36
2022-09-14T20:29:31.218Z,70.49
2022-09-14T20:31:59.148Z,70.43
2022-09-14T20:34:27.143Z,70.76
2022-09-14T20:36:55.134Z,70.71
2022-09-14T20:39:23.875Z,70.90
2022-09-14T20:41:51.126Z,70.78
2022-09-14T20:44:22.277Z,71.11
2022-09-14T20:46:50.639Z,70.87
2022-09-14T20:49:22.223Z,71.05
2022-09-14T20:51:49.584Z,70.78
2022-09-14T20:54:17.997Z,71.07
2022-09-14T20:56:46.376Z,71.60
2022-09-14T20:59:16.706Z,71.82
2022-09-14T21:01:46.295Z,71.29
2022-09-14T21:04:17.189Z,72.27
2022-09-14T21:06:47.972Z,72.11
2022-09-14T21:09:18.252Z,71.88
2022-09-14T21:11:46.305Z,72.12
2022-09-14T21:14:15.660Z,71.46
2022-09-14T21:16:46.728Z,71.78
2022-09-14T21:19:16.711Z,72.03
2022-09-14T21:21:43.879Z,72.41
2022-09-14T21:24:13.452Z,72.11
2022-09-14T21:26:42.989Z,72.22
2022-09-14T21:29:20.314Z,72.51
2022-09-14T21:31:48.830Z,72.13
2022-09-14T21:34:16.348Z,72.12
2022-09-14T21:36:47.207Z,72.15
2022-09-14T21:39:23.049Z,72.46
2022-09-14T21:41:57.318Z,72.30
2022-09-14T21:44:34.588Z,72.22
2022-09-14T21:47:03.188Z,72.53
2022-09-14T21:49:30.684Z,72.15
2022-09-14T21:51:57.661Z,73.10
2022-09-14T21:54:24.627Z,72.47
2022-09-14T21:56:52.766Z,72.55
2022-09-14T21:59:21.824Z,72.52
2022-09-14T22:01:49.314Z,72.90
2022-09-14T22:04:20.883Z,72.98
2022-09-14T22:06:48.815Z,72.90
2022-09-14T22:09:18.356Z,72.90
2022-09-14T22:11:45.650Z,73.39
2022-09-14T22:14:18.940Z,73.48
2022-09-14T22:16:47.341Z,72.78
2022-09-14T22:19:17.126Z,73.24
2022-09-14T22:21:44.494Z,73.52
2022-09-14T22:24:17.409Z,73.35
2022-09-14T22:26:45.471Z,73.05
2022-09-14T22:29:14.616Z,73.27
2022-09-14T22:31:43.993Z,73.32
2022-09-14T22:34:12.675Z,73.25
2022-09-14T22:36:42.763Z,73.45
2022-09-14T22:39:11.181Z,73.16
2022-09-14T22:41:38.547Z,73.70
2022-09-14T22:44:06.433Z,73.15
2022-09-14T22:46:34.151Z,73.17
2022-09-14T22:49:01.394Z,73.27
2022-09-14T22:51:29.870Z,73.25
2022-09-14T22:53:57.647Z,73.55
2022-09-14T22:56:32.401Z,73.50
2022-09-14T22:59:02.547Z,73.53
2022-09-14T23:01:34.697Z,73.39
2022-09-14T23:04:06.359Z,73.63
2022-09-14T23:06:38.268Z,73.67
2022-09-14T23:09:07.562Z,73.56
2022-09-14T23:11:35.145Z,73.53
2022-09-14T23:14:02.120Z,74.24
2022-09-14T23:16:31.084Z,73.94
2022-09-14T23:19:04.635Z,74.48
2022-09-14T23:21:31.730Z,74.41
2022-09-14T23:24:05.828Z,74.55
2022-09-14T23:26:33.960Z,74.73
2022-09-14T23:29:09.208Z,74.46
2022-09-14T23:31:36.465Z,74.53
2022-09-14T23:34:05.433Z,74.85
2022-09-14T23:36:33.027Z,74.92
2022-09-14T23:39:00.447Z,74.29
2022-09-14T23:41:28.113Z,74.67
2022-09-14T23:43:55.368Z,74.13
2022-09-14T23:46:23.808Z,74.08
2022-09-14T23:48:51.781Z,74.30
2022-09-14T23:51:19.336Z,74.50
2022-09-14T23:53:46.870Z,74.33
2022-09-14T23:56:15.310Z,74.40
2022-09-14T23:58:43.359Z,74.03
